Terminal Aerodrome Forecast
Issued by NWS Knoxville/Tri Cities, TN

Home | Current Version | Previous Version | Text Only | Print | Product List | Glossary On
Versions: 1 2 3 4 5 6 7 8 9 10 11 12 13 14 15 16 17 18 19 20 21 22 23 24 25 26 27 28 29 30 31 32
000
FTUS44 KMRX 192322
TAFTRI
TAF
KTRI 192322Z 2000/2024 VRB05KT P6SM VCSH SCT030 OVC050
      TEMPO 2002/2006 5SM -RA SCT024 OVC035
     FM200600 VRB05KT 6SM -RA BR OVC024
     FM201000 00000KT 4SM -RA BR OVC012
     FM201600 23005KT 5SM BR VCSH SCT015 OVC028
     FM202200 22008KT P6SM SCT030 BKN040=

USA.gov is the U.S. government's official web portal to all federal, state and local government web resources and services.